sensor_id;sensor_type;location;lat;lon;timestamp;noise_LAeq;noise_LA_min;noise_LA_max;noise_LA01;noise_LA95
47962;Laerm;33723;50.928;6.960;2022-12-10T00:00:36;53.38;44.19;64.05;;
47962;Laerm;33723;50.928;6.960;2022-12-10T06:35:33;59.21;44.94;69.34;;
47962;Laerm;33723;50.928;6.960;2022-12-10T06:37:58;63.95;43.39;75.43;;
47962;Laerm;33723;50.928;6.960;2022-12-10T06:40:23;59.79;44.31;71.36;;
47962;Laerm;33723;50.928;6.960;2022-12-10T06:42:50;62.82;48.34;77.69;;
47962;Laerm;33723;50.928;6.960;2022-12-10T06:45:15;60.81;44.31;72.05;;
47962;Laerm;33723;50.928;6.960;2022-12-10T06:47:40;60.62;44.03;70.41;;
47962;Laerm;33723;50.928;6.960;2022-12-10T06:50:06;61.49;45.89;73.10;;
47962;Laerm;33723;50.928;6.960;2022-12-10T06:52:31;60.28;45.01;70.90;;
47962;Laerm;33723;50.928;6.960;2022-12-10T06:54:56;64.84;45.39;76.95;;
47962;Laerm;33723;50.928;6.960;2022-12-10T06:57:21;58.68;42.53;69.01;;
47962;Laerm;33723;50.928;6.960;2022-12-10T06:59:47;63.40;43.04;81.42;;
47962;Laerm;33723;50.928;6.960;2022-12-10T07:02:12;62.01;47.12;74.67;;
47962;Laerm;33723;50.928;6.960;2022-12-10T07:04:38;59.55;45.45;69.34;;
47962;Laerm;33723;50.928;6.960;2022-12-10T07:07:04;61.33;45.20;72.89;;
47962;Laerm;33723;50.928;6.960;2022-12-10T07:09:29;65.68;45.17;80.68;;
47962;Laerm;33723;50.928;6.960;2022-12-10T07:11:54;61.08;45.11;73.42;;
47962;Laerm;33723;50.928;6.960;2022-12-10T07:14:20;62.22;51.18;73.54;;
47962;Laerm;33723;50.928;6.960;2022-12-10T07:16:45;58.68;43.34;67.61;;
47962;Laerm;33723;50.928;6.960;2022-12-10T07:19:11;58.94;45.80;67.38;;
47962;Laerm;33723;50.928;6.960;2022-12-10T07:21:37;60.27;44.35;70.87;;
47962;Laerm;33723;50.928;6.960;2022-12-10T07:24:03;61.79;48.42;74.19;;
47962;Laerm;33723;50.928;6.960;2022-12-10T07:26:30;67.98;52.39;81.25;;
47962;Laerm;33723;50.928;6.960;2022-12-10T07:28:56;63.69;46.18;73.52;;
47962;Laerm;33723;50.928;6.960;2022-12-10T07:31:22;60.12;45.77;73.01;;
47962;Laerm;33723;50.928;6.960;2022-12-10T07:33:48;60.76;45.39;72.80;;
47962;Laerm;33723;50.928;6.960;2022-12-10T07:36:13;63.13;44.35;73.29;;
47962;Laerm;33723;50.928;6.960;2022-12-10T07:38:39;61.76;47.06;71.70;;
47962;Laerm;33723;50.928;6.960;2022-12-10T07:41:05;61.79;48.08;71.13;;
47962;Laerm;33723;50.928;6.960;2022-12-10T07:43:32;61.96;47.65;71.79;;
47962;Laerm;33723;50.928;6.960;2022-12-10T07:46:02;62.82;46.25;75.59;;
47962;Laerm;33723;50.928;6.960;2022-12-10T07:48:27;59.40;46.02;69.31;;
47962;Laerm;33723;50.928;6.960;2022-12-10T07:50:56;64.00;47.70;75.27;;
47962;Laerm;33723;50.928;6.960;2022-12-10T07:53:22;62.18;46.10;70.76;;
47962;Laerm;33723;50.928;6.960;2022-12-10T07:55:47;63.58;50.70;71.98;;
47962;Laerm;33723;50.928;6.960;2022-12-10T07:58:12;60.19;47.40;68.74;;
47962;Laerm;33723;50.928;6.960;2022-12-10T08:00:38;62.57;48.67;74.00;;
47962;Laerm;33723;50.928;6.960;2022-12-10T08:03:03;61.11;44.73;72.69;;
47962;Laerm;33723;50.928;6.960;2022-12-10T08:05:28;62.03;46.59;72.09;;
47962;Laerm;33723;50.928;6.960;2022-12-10T08:07:53;62.44;48.78;71.16;;
47962;Laerm;33723;50.928;6.960;2022-12-10T08:10:19;65.09;46.43;74.60;;
47962;Laerm;33723;50.928;6.960;2022-12-10T08:12:45;63.24;47.68;73.46;;
47962;Laerm;33723;50.928;6.960;2022-12-10T08:15:10;63.93;50.39;87.38;;
47962;Laerm;33723;50.928;6.960;2022-12-10T08:17:35;65.69;49.75;81.99;;
47962;Laerm;33723;50.928;6.960;2022-12-10T08:20:00;61.08;47.12;74.03;;
47962;Laerm;33723;50.928;6.960;2022-12-10T08:22:26;63.73;49.63;72.23;;
47962;Laerm;33723;50.928;6.960;2022-12-10T08:24:51;62.95;47.26;76.46;;
47962;Laerm;33723;50.928;6.960;2022-12-10T08:27:16;61.30;46.28;74.66;;
47962;Laerm;33723;50.928;6.960;2022-12-10T08:29:41;63.32;47.90;74.30;;
47962;Laerm;33723;50.928;6.960;2022-12-10T08:32:06;63.30;50.44;72.92;;
47962;Laerm;33723;50.928;6.960;2022-12-10T08:34:32;65.26;51.87;76.52;;
47962;Laerm;33723;50.928;6.960;2022-12-10T08:36:57;62.01;48.37;73.27;;
47962;Laerm;33723;50.928;6.960;2022-12-10T08:39:22;62.53;46.20;72.41;;
47962;Laerm;33723;50.928;6.960;2022-12-10T08:41:47;64.32;46.33;71.16;;
47962;Laerm;33723;50.928;6.960;2022-12-10T08:44:13;63.90;47.54;75.30;;
47962;Laerm;33723;50.928;6.960;2022-12-10T08:46:39;62.34;45.34;69.74;;
47962;Laerm;33723;50.928;6.960;2022-12-10T08:49:04;63.97;48.88;72.88;;
47962;Laerm;33723;50.928;6.960;2022-12-10T08:51:30;62.37;48.31;71.06;;
47962;Laerm;33723;50.928;6.960;2022-12-10T08:53:55;64.08;50.04;73.17;;
47962;Laerm;33723;50.928;6.960;2022-12-10T08:56:20;64.34;48.10;73.01;;
47962;Laerm;33723;50.928;6.960;2022-12-10T08:58:46;64.08;53.08;72.44;;
47962;Laerm;33723;50.928;6.960;2022-12-10T09:01:12;62.61;48.67;71.59;;
47962;Laerm;33723;50.928;6.960;2022-12-10T09:03:38;65.99;48.18;77.21;;
47962;Laerm;33723;50.928;6.960;2022-12-10T09:06:04;62.76;46.80;71.09;;
47962;Laerm;33723;50.928;6.960;2022-12-10T09:08:30;62.91;50.26;73.01;;
47962;Laerm;33723;50.928;6.960;2022-12-10T09:10:55;63.65;48.31;71.72;;
47962;Laerm;33723;50.928;6.960;2022-12-10T09:13:20;64.93;49.67;81.15;;
47962;Laerm;33723;50.928;6.960;2022-12-10T09:15:52;63.71;48.26;73.02;;
47962;Laerm;33723;50.928;6.960;2022-12-10T09:18:17;65.34;44.03;74.96;;
47962;Laerm;33723;50.928;6.960;2022-12-10T09:20:43;61.66;46.48;70.18;;
47962;Laerm;33723;50.928;6.960;2022-12-10T09:23:08;64.24;47.96;73.65;;
47962;Laerm;33723;50.928;6.960;2022-12-10T09:25:33;63.41;48.05;73.04;;
47962;Laerm;33723;50.928;6.960;2022-12-10T09:27:58;61.98;49.62;70.02;;
47962;Laerm;33723;50.928;6.960;2022-12-10T09:30:24;64.25;48.15;72.10;;
47962;Laerm;33723;50.928;6.960;2022-12-10T09:32:49;63.97;52.16;72.94;;
47962;Laerm;33723;50.928;6.960;2022-12-10T09:35:14;63.40;49.80;70.09;;
47962;Laerm;33723;50.928;6.960;2022-12-10T09:37:40;63.04;47.81;71.71;;
47962;Laerm;33723;50.928;6.960;2022-12-10T09:40:05;65.14;53.04;75.12;;
47962;Laerm;33723;50.928;6.960;2022-12-10T09:42:34;63.63;50.99;73.06;;
47962;Laerm;33723;50.928;6.960;2022-12-10T09:52:52;69.71;49.20;92.02;;
47962;Laerm;33723;50.928;6.960;2022-12-10T09:55:22;63.25;48.90;73.43;;
47962;Laerm;33723;50.928;6.960;2022-12-10T09:57:51;62.24;48.85;75.37;;
47962;Laerm;33723;50.928;6.960;2022-12-10T10:02:43;62.81;52.89;69.74;;
47962;Laerm;33723;50.928;6.960;2022-12-10T10:07:35;62.53;52.73;69.93;;
47962;Laerm;33723;50.928;6.960;2022-12-10T10:10:06;64.18;52.89;72.40;;
47962;Laerm;33723;50.928;6.960;2022-12-10T10:12:33;65.32;49.49;74.72;;
47962;Laerm;33723;50.928;6.960;2022-12-10T10:14:59;64.63;50.73;71.82;;
47962;Laerm;33723;50.928;6.960;2022-12-10T10:17:35;64.07;51.75;72.15;;
47962;Laerm;33723;50.928;6.960;2022-12-10T10:20:01;61.90;49.95;69.73;;
47962;Laerm;33723;50.928;6.960;2022-12-10T10:22:26;65.01;49.98;73.11;;
47962;Laerm;33723;50.928;6.960;2022-12-10T10:24:51;66.02;53.06;76.26;;
47962;Laerm;33723;50.928;6.960;2022-12-10T10:27:18;62.88;49.09;75.79;;
47962;Laerm;33723;50.928;6.960;2022-12-10T10:29:45;64.48;50.04;72.42;;
47962;Laerm;33723;50.928;6.960;2022-12-10T10:34:36;65.52;51.94;75.79;;
47962;Laerm;33723;50.928;6.960;2022-12-10T10:37:03;66.16;52.75;78.67;;
47962;Laerm;33723;50.928;6.960;2022-12-10T10:39:30;63.88;52.58;71.21;;
47962;Laerm;33723;50.928;6.960;2022-12-10T10:41:56;65.94;51.25;78.09;;
47962;Laerm;33723;50.928;6.960;2022-12-10T10:44:22;66.43;52.02;75.85;;
47962;Laerm;33723;50.928;6.960;2022-12-10T10:46:50;64.29;49.87;70.98;;
47962;Laerm;33723;50.928;6.960;2022-12-10T10:49:26;66.01;53.74;76.78;;
47962;Laerm;33723;50.928;6.960;2022-12-10T10:51:58;63.55;51.50;70.13;;
47962;Laerm;33723;50.928;6.960;2022-12-10T10:57:02;65.43;52.53;73.87;;
47962;Laerm;33723;50.928;6.960;2022-12-10T10:59:29;62.52;49.00;70.56;;
47962;Laerm;33723;50.928;6.960;2022-12-10T11:01:58;63.40;51.04;71.24;;
47962;Laerm;33723;50.928;6.960;2022-12-10T11:07:01;64.27;53.81;72.47;;
47962;Laerm;33723;50.928;6.960;2022-12-10T11:09:28;63.24;52.52;70.41;;
47962;Laerm;33723;50.928;6.960;2022-12-10T11:12:04;65.75;50.80;73.22;;
47962;Laerm;33723;50.928;6.960;2022-12-10T11:14:30;64.37;50.86;74.16;;
47962;Laerm;33723;50.928;6.960;2022-12-10T11:17:00;64.80;53.99;78.78;;
47962;Laerm;33723;50.928;6.960;2022-12-10T11:19:26;64.92;50.88;71.62;;
47962;Laerm;33723;50.928;6.960;2022-12-10T11:21:52;63.73;51.07;71.10;;
47962;Laerm;33723;50.928;6.960;2022-12-10T11:24:18;65.68;50.76;76.78;;
47962;Laerm;33723;50.928;6.960;2022-12-10T11:26:52;65.58;48.85;79.27;;
47962;Laerm;33723;50.928;6.960;2022-12-10T11:32:06;64.67;54.93;76.05;;
47962;Laerm;33723;50.928;6.960;2022-12-10T11:37:36;65.17;53.24;76.58;;
47962;Laerm;33723;50.928;6.960;2022-12-10T11:40:10;64.51;50.24;72.17;;
47962;Laerm;33723;50.928;6.960;2022-12-10T11:42:50;65.45;52.28;79.64;;
47962;Laerm;33723;50.928;6.960;2022-12-10T11:47:54;65.25;53.86;79.07;;
47962;Laerm;33723;50.928;6.960;2022-12-10T11:50:41;66.03;53.82;74.39;;
47962;Laerm;33723;50.928;6.960;2022-12-10T11:58:17;66.88;53.33;79.38;;
47962;Laerm;33723;50.928;6.960;2022-12-10T12:03:27;64.42;50.88;72.85;;
47962;Laerm;33723;50.928;6.960;2022-12-10T12:08:39;64.45;53.98;72.13;;
47962;Laerm;33723;50.928;6.960;2022-12-10T12:13:57;64.73;52.31;74.18;;
47962;Laerm;33723;50.928;6.960;2022-12-10T12:16:26;63.77;52.45;74.54;;
47962;Laerm;33723;50.928;6.960;2022-12-10T12:19:00;66.06;52.54;77.11;;
47962;Laerm;33723;50.928;6.960;2022-12-10T12:21:26;63.31;50.77;75.32;;
47962;Laerm;33723;50.928;6.960;2022-12-10T12:31:15;63.78;51.19;72.96;;
47962;Laerm;33723;50.928;6.960;2022-12-10T12:33:43;64.66;53.80;77.17;;
47962;Laerm;33723;50.928;6.960;2022-12-10T12:36:26;63.56;50.27;72.56;;
47962;Laerm;33723;50.928;6.960;2022-12-10T12:39:02;65.36;51.07;76.58;;
47962;Laerm;33723;50.928;6.960;2022-12-10T12:41:40;64.11;51.62;74.06;;
47962;Laerm;33723;50.928;6.960;2022-12-10T12:44:18;65.53;52.42;76.06;;
47962;Laerm;33723;50.928;6.960;2022-12-10T12:46:46;65.41;52.09;73.40;;
47962;Laerm;33723;50.928;6.960;2022-12-10T12:49:15;64.13;51.57;72.74;;
47962;Laerm;33723;50.928;6.960;2022-12-10T12:51:45;65.10;55.09;80.15;;
47962;Laerm;33723;50.928;6.960;2022-12-10T12:54:12;65.34;53.52;74.12;;
47962;Laerm;33723;50.928;6.960;2022-12-10T12:56:43;65.42;52.05;79.37;;
47962;Laerm;33723;50.928;6.960;2022-12-10T13:01:45;66.64;52.26;73.58;;
47962;Laerm;33723;50.928;6.960;2022-12-10T13:04:14;65.09;52.51;71.53;;
47962;Laerm;33723;50.928;6.960;2022-12-10T13:06:39;65.45;54.43;88.03;;
47962;Laerm;33723;50.928;6.960;2022-12-10T13:11:38;64.94;53.88;79.45;;
47962;Laerm;33723;50.928;6.960;2022-12-10T13:24:22;66.53;51.73;85.75;;
47962;Laerm;33723;50.928;6.960;2022-12-10T13:32:13;63.80;50.53;75.21;;
47962;Laerm;33723;50.928;6.960;2022-12-10T13:34:39;64.61;51.70;72.58;;
47962;Laerm;33723;50.928;6.960;2022-12-10T13:37:15;65.53;53.11;72.40;;
47962;Laerm;33723;50.928;6.960;2022-12-10T13:40:09;65.31;53.02;75.67;;
47962;Laerm;33723;50.928;6.960;2022-12-10T13:42:30;65.61;52.24;76.07;;
47962;Laerm;33723;50.928;6.960;2022-12-10T13:55:39;64.76;53.25;72.55;;
47962;Laerm;33723;50.928;6.960;2022-12-10T14:08:38;63.85;49.59;73.00;;
47962;Laerm;33723;50.928;6.960;2022-12-10T14:11:06;65.86;49.30;80.14;;
47962;Laerm;33723;50.928;6.960;2022-12-10T14:13:39;65.63;55.67;73.55;;
47962;Laerm;33723;50.928;6.960;2022-12-10T14:16:06;64.52;54.49;74.81;;
47962;Laerm;33723;50.928;6.960;2022-12-10T14:18:34;65.14;53.40;73.76;;
47962;Laerm;33723;50.928;6.960;2022-12-10T14:21:02;65.94;52.44;76.22;;
47962;Laerm;33723;50.928;6.960;2022-12-10T14:23:30;64.28;48.21;76.43;;
47962;Laerm;33723;50.928;6.960;2022-12-10T14:26:18;65.88;52.46;76.58;;
47962;Laerm;33723;50.928;6.960;2022-12-10T14:28:48;64.05;55.32;78.21;;
47962;Laerm;33723;50.928;6.960;2022-12-10T14:31:19;66.09;54.16;79.48;;
47962;Laerm;33723;50.928;6.960;2022-12-10T14:33:45;66.13;55.84;72.92;;
47962;Laerm;33723;50.928;6.960;2022-12-10T14:36:14;65.01;52.60;74.93;;
47962;Laerm;33723;50.928;6.960;2022-12-10T14:38:41;64.28;50.34;72.91;;
47962;Laerm;33723;50.928;6.960;2022-12-10T14:41:06;65.49;52.24;74.44;;
47962;Laerm;33723;50.928;6.960;2022-12-10T14:45:57;65.03;53.94;75.22;;
47962;Laerm;33723;50.928;6.960;2022-12-10T14:48:23;63.82;52.96;71.07;;
47962;Laerm;33723;50.928;6.960;2022-12-10T14:50:48;70.08;52.06;88.42;;
47962;Laerm;33723;50.928;6.960;2022-12-10T14:53:15;63.20;50.70;71.79;;
47962;Laerm;33723;50.928;6.960;2022-12-10T14:55:41;66.29;55.54;75.28;;
47962;Laerm;33723;50.928;6.960;2022-12-10T14:58:09;63.79;50.47;70.88;;
47962;Laerm;33723;50.928;6.960;2022-12-10T15:00:38;64.87;53.71;73.89;;
47962;Laerm;33723;50.928;6.960;2022-12-10T15:03:09;64.76;52.22;73.59;;
47962;Laerm;33723;50.928;6.960;2022-12-10T15:05:35;64.99;52.88;73.65;;
47962;Laerm;33723;50.928;6.960;2022-12-10T15:08:04;63.19;49.74;81.64;;
47962;Laerm;33723;50.928;6.960;2022-12-10T15:10:38;64.60;52.85;76.52;;
47962;Laerm;33723;50.928;6.960;2022-12-10T15:13:04;65.47;50.71;73.20;;
47962;Laerm;33723;50.928;6.960;2022-12-10T15:15:37;63.99;51.71;73.83;;
47962;Laerm;33723;50.928;6.960;2022-12-10T15:20:43;64.79;50.52;74.72;;
47962;Laerm;33723;50.928;6.960;2022-12-10T15:25:44;63.99;52.78;73.97;;
47962;Laerm;33723;50.928;6.960;2022-12-10T15:28:19;63.15;50.82;72.17;;
47962;Laerm;33723;50.928;6.960;2022-12-10T15:30:45;64.25;52.48;74.03;;
47962;Laerm;33723;50.928;6.960;2022-12-10T15:33:37;64.88;51.34;74.06;;
47962;Laerm;33723;50.928;6.960;2022-12-10T15:36:01;67.69;55.74;78.64;;
47962;Laerm;33723;50.928;6.960;2022-12-10T15:38:27;64.03;53.54;75.20;;
47962;Laerm;33723;50.928;6.960;2022-12-10T15:41:40;63.36;49.50;79.04;;
47962;Laerm;33723;50.928;6.960;2022-12-10T15:43:38;64.46;51.67;72.95;;
47962;Laerm;33723;50.928;6.960;2022-12-10T15:46:16;63.62;50.97;72.27;;
47962;Laerm;33723;50.928;6.960;2022-12-10T15:48:42;66.56;55.09;72.81;;
47962;Laerm;33723;50.928;6.960;2022-12-10T15:51:07;63.92;52.02;73.09;;
47962;Laerm;33723;50.928;6.960;2022-12-10T15:53:34;65.33;51.10;85.76;;
47962;Laerm;33723;50.928;6.960;2022-12-10T15:56:01;64.52;52.84;72.87;;
47962;Laerm;33723;50.928;6.960;2022-12-10T15:58:26;63.21;49.82;71.05;;
47962;Laerm;33723;50.928;6.960;2022-12-10T16:00:51;64.33;53.71;73.54;;
47962;Laerm;33723;50.928;6.960;2022-12-10T16:03:17;64.96;53.25;71.92;;
47962;Laerm;33723;50.928;6.960;2022-12-10T16:05:44;64.29;52.60;73.10;;
47962;Laerm;33723;50.928;6.960;2022-12-10T16:10:37;64.39;52.41;74.49;;
47962;Laerm;33723;50.928;6.960;2022-12-10T16:13:04;62.85;50.79;73.52;;
47962;Laerm;33723;50.928;6.960;2022-12-10T16:15:30;62.96;50.68;69.54;;
47962;Laerm;33723;50.928;6.960;2022-12-10T16:18:00;65.09;51.13;84.67;;
47962;Laerm;33723;50.928;6.960;2022-12-10T16:20:27;64.74;53.05;76.27;;
47962;Laerm;33723;50.928;6.960;2022-12-10T16:22:53;65.00;50.41;77.24;;
47962;Laerm;33723;50.928;6.960;2022-12-10T16:25:18;66.88;54.74;77.52;;
47962;Laerm;33723;50.928;6.960;2022-12-10T16:27:43;63.86;53.36;79.83;;
47962;Laerm;33723;50.928;6.960;2022-12-10T16:32:43;63.25;52.60;71.56;;
47962;Laerm;33723;50.928;6.960;2022-12-10T16:35:08;64.95;54.82;70.63;;
47962;Laerm;33723;50.928;6.960;2022-12-10T16:37:34;64.64;53.43;81.67;;
47962;Laerm;33723;50.928;6.960;2022-12-10T16:39:59;64.68;51.69;73.85;;
47962;Laerm;33723;50.928;6.960;2022-12-10T16:42:25;64.01;52.36;71.66;;
47962;Laerm;33723;50.928;6.960;2022-12-10T16:44:51;63.07;51.13;71.85;;
47962;Laerm;33723;50.928;6.960;2022-12-10T16:47:16;65.00;54.16;72.50;;
47962;Laerm;33723;50.928;6.960;2022-12-10T16:49:41;64.65;52.89;72.52;;
47962;Laerm;33723;50.928;6.960;2022-12-10T16:52:06;64.22;52.47;73.22;;
47962;Laerm;33723;50.928;6.960;2022-12-10T16:54:31;63.48;49.88;70.15;;
47962;Laerm;33723;50.928;6.960;2022-12-10T16:56:57;64.53;53.87;76.26;;
47962;Laerm;33723;50.928;6.960;2022-12-10T16:59:22;65.90;53.63;74.61;;
47962;Laerm;33723;50.928;6.960;2022-12-10T17:01:47;64.09;52.36;73.44;;
47962;Laerm;33723;50.928;6.960;2022-12-10T17:04:12;65.08;51.35;75.72;;
47962;Laerm;33723;50.928;6.960;2022-12-10T17:06:37;64.87;52.22;72.19;;
47962;Laerm;33723;50.928;6.960;2022-12-10T17:09:03;64.33;55.68;73.26;;
47962;Laerm;33723;50.928;6.960;2022-12-10T17:11:32;65.26;51.57;78.43;;
47962;Laerm;33723;50.928;6.960;2022-12-10T17:16:40;65.83;53.01;74.19;;
47962;Laerm;33723;50.928;6.960;2022-12-10T17:19:05;63.47;51.92;75.96;;
47962;Laerm;33723;50.928;6.960;2022-12-10T17:21:31;63.29;51.33;70.54;;
47962;Laerm;33723;50.928;6.960;2022-12-10T17:23:57;65.37;51.72;75.78;;
47962;Laerm;33723;50.928;6.960;2022-12-10T17:26:26;63.15;52.43;71.51;;
47962;Laerm;33723;50.928;6.960;2022-12-10T17:28:52;69.83;54.20;83.46;;
47962;Laerm;33723;50.928;6.960;2022-12-10T17:31:18;63.75;53.47;80.95;;
47962;Laerm;33723;50.928;6.960;2022-12-10T17:33:43;64.16;49.96;80.06;;
47962;Laerm;33723;50.928;6.960;2022-12-10T17:36:09;61.16;50.03;74.65;;
47962;Laerm;33723;50.928;6.960;2022-12-10T17:38:35;64.56;51.71;75.23;;
47962;Laerm;33723;50.928;6.960;2022-12-10T17:41:00;82.19;54.14;99.93;;
47962;Laerm;33723;50.928;6.960;2022-12-10T17:43:25;63.07;53.49;78.70;;
47962;Laerm;33723;50.928;6.960;2022-12-10T17:45:50;65.05;53.52;78.58;;
47962;Laerm;33723;50.928;6.960;2022-12-10T17:48:16;63.66;53.07;73.89;;
47962;Laerm;33723;50.928;6.960;2022-12-10T17:50:42;65.83;49.73;85.19;;
47962;Laerm;33723;50.928;6.960;2022-12-10T17:53:09;63.84;52.84;72.00;;
47962;Laerm;33723;50.928;6.960;2022-12-10T17:55:37;67.61;49.12;83.39;;
47962;Laerm;33723;50.928;6.960;2022-12-10T17:58:03;68.30;52.11;85.79;;
47962;Laerm;33723;50.928;6.960;2022-12-10T18:00:30;64.38;50.95;74.38;;
47962;Laerm;33723;50.928;6.960;2022-12-10T18:02:55;64.62;53.91;73.36;;
47962;Laerm;33723;50.928;6.960;2022-12-10T18:05:21;64.03;50.74;71.44;;
47962;Laerm;33723;50.928;6.960;2022-12-10T18:07:46;62.98;50.86;71.92;;
47962;Laerm;33723;50.928;6.960;2022-12-10T18:10:22;64.92;53.66;73.89;;
47962;Laerm;33723;50.928;6.960;2022-12-10T18:12:48;63.57;51.62;74.07;;
47962;Laerm;33723;50.928;6.960;2022-12-10T18:15:20;64.36;50.51;72.35;;
47962;Laerm;33723;50.928;6.960;2022-12-10T18:17:47;64.16;50.87;71.95;;
47962;Laerm;33723;50.928;6.960;2022-12-10T18:20:54;64.66;50.69;74.89;;
47962;Laerm;33723;50.928;6.960;2022-12-10T18:23:02;64.50;50.60;76.99;;
47962;Laerm;33723;50.928;6.960;2022-12-10T18:25:28;62.94;49.75;73.99;;
47962;Laerm;33723;50.928;6.960;2022-12-10T18:27:58;65.16;53.36;77.89;;
47962;Laerm;33723;50.928;6.960;2022-12-10T18:30:24;65.27;51.98;80.44;;
47962;Laerm;33723;50.928;6.960;2022-12-10T18:32:50;64.30;49.67;72.58;;
47962;Laerm;33723;50.928;6.960;2022-12-10T18:35:16;63.06;49.51;75.16;;
47962;Laerm;33723;50.928;6.960;2022-12-10T18:37:41;63.11;51.11;73.02;;
47962;Laerm;33723;50.928;6.960;2022-12-10T18:40:07;64.72;52.00;76.60;;
47962;Laerm;33723;50.928;6.960;2022-12-10T18:42:36;64.14;50.06;73.74;;
47962;Laerm;33723;50.928;6.960;2022-12-10T18:45:01;62.43;51.26;71.81;;
47962;Laerm;33723;50.928;6.960;2022-12-10T18:47:26;60.52;48.70;68.18;;
47962;Laerm;33723;50.928;6.960;2022-12-10T18:49:52;69.77;47.24;90.44;;
47962;Laerm;33723;50.928;6.960;2022-12-10T18:52:17;63.33;50.23;71.08;;
47962;Laerm;33723;50.928;6.960;2022-12-10T18:54:42;64.11;52.64;74.74;;
47962;Laerm;33723;50.928;6.960;2022-12-10T18:57:09;64.91;54.55;73.70;;
47962;Laerm;33723;50.928;6.960;2022-12-10T18:59:34;64.81;53.75;73.45;;
47962;Laerm;33723;50.928;6.960;2022-12-10T19:02:00;62.40;50.61;71.95;;
47962;Laerm;33723;50.928;6.960;2022-12-10T19:04:25;64.25;53.44;74.78;;
47962;Laerm;33723;50.928;6.960;2022-12-10T19:06:50;65.80;51.51;78.78;;
47962;Laerm;33723;50.928;6.960;2022-12-10T19:09:16;61.70;45.80;74.50;;
47962;Laerm;33723;50.928;6.960;2022-12-10T19:11:42;63.20;51.36;71.80;;
47962;Laerm;33723;50.928;6.960;2022-12-10T19:14:11;64.79;52.47;75.93;;
47962;Laerm;33723;50.928;6.960;2022-12-10T19:16:36;64.49;52.41;74.81;;
47962;Laerm;33723;50.928;6.960;2022-12-10T19:19:01;64.96;55.15;75.94;;
47962;Laerm;33723;50.928;6.960;2022-12-10T19:21:30;62.28;51.82;69.90;;
47962;Laerm;33723;50.928;6.960;2022-12-10T19:23:55;67.40;53.39;84.82;;
47962;Laerm;33723;50.928;6.960;2022-12-10T19:26:31;63.10;52.04;82.59;;
47962;Laerm;33723;50.928;6.960;2022-12-10T19:29:00;64.43;52.48;72.91;;
47962;Laerm;33723;50.928;6.960;2022-12-10T19:31:25;64.86;52.64;76.49;;
47962;Laerm;33723;50.928;6.960;2022-12-10T19:33:51;61.49;49.80;68.77;;
47962;Laerm;33723;50.928;6.960;2022-12-10T19:38:41;62.97;47.04;73.27;;
47962;Laerm;33723;50.928;6.960;2022-12-10T19:41:07;63.58;49.10;71.33;;
47962;Laerm;33723;50.928;6.960;2022-12-10T19:43:32;64.14;50.85;72.40;;
47962;Laerm;33723;50.928;6.960;2022-12-10T19:45:58;65.14;49.95;74.10;;
47962;Laerm;33723;50.928;6.960;2022-12-10T19:48:23;64.57;52.81;75.83;;
47962;Laerm;33723;50.928;6.960;2022-12-10T19:50:48;65.08;53.48;75.63;;
47962;Laerm;33723;50.928;6.960;2022-12-10T19:53:13;61.48;45.86;71.80;;
47962;Laerm;33723;50.928;6.960;2022-12-10T19:55:39;62.80;51.33;80.13;;
47962;Laerm;33723;50.928;6.960;2022-12-10T19:58:04;64.11;51.09;79.66;;
47962;Laerm;33723;50.928;6.960;2022-12-10T20:00:29;64.15;44.80;79.60;;
47962;Laerm;33723;50.928;6.960;2022-12-10T20:02:57;62.13;51.37;69.53;;
47962;Laerm;33723;50.928;6.960;2022-12-10T20:05:22;61.46;47.54;70.55;;
47962;Laerm;33723;50.928;6.960;2022-12-10T20:07:47;63.65;47.04;77.93;;
47962;Laerm;33723;50.928;6.960;2022-12-10T20:10:23;62.52;47.79;70.90;;
47962;Laerm;33723;50.928;6.960;2022-12-10T20:12:49;63.18;49.81;74.08;;
47962;Laerm;33723;50.928;6.960;2022-12-10T20:15:14;62.39;51.17;68.88;;
47962;Laerm;33723;50.928;6.960;2022-12-10T20:17:39;62.43;46.35;72.90;;
47962;Laerm;33723;50.928;6.960;2022-12-10T20:20:05;58.89;50.18;68.45;;
47962;Laerm;33723;50.928;6.960;2022-12-10T20:22:30;63.83;50.45;71.86;;
47962;Laerm;33723;50.928;6.960;2022-12-10T20:24:56;64.51;48.03;71.51;;
47962;Laerm;33723;50.928;6.960;2022-12-10T20:27:21;63.15;45.31;73.77;;
47962;Laerm;33723;50.928;6.960;2022-12-10T20:29:46;62.42;46.64;70.73;;
47962;Laerm;33723;50.928;6.960;2022-12-10T20:32:12;61.20;48.63;70.58;;
47962;Laerm;33723;50.928;6.960;2022-12-10T20:34:37;62.93;44.87;72.19;;
47962;Laerm;33723;50.928;6.960;2022-12-10T20:37:03;62.19;44.31;70.61;;
47962;Laerm;33723;50.928;6.960;2022-12-10T20:39:29;59.63;44.23;71.60;;
47962;Laerm;33723;50.928;6.960;2022-12-10T20:41:56;61.54;45.43;73.33;;
47962;Laerm;33723;50.928;6.960;2022-12-10T20:44:21;62.17;47.77;71.29;;
47962;Laerm;33723;50.928;6.960;2022-12-10T20:46:47;61.68;47.20;69.07;;
47962;Laerm;33723;50.928;6.960;2022-12-10T20:49:14;60.90;45.77;68.51;;
47962;Laerm;33723;50.928;6.960;2022-12-10T20:51:39;62.93;47.40;74.05;;
47962;Laerm;33723;50.928;6.960;2022-12-10T20:54:04;62.38;48.88;72.09;;
47962;Laerm;33723;50.928;6.960;2022-12-10T20:56:30;62.04;48.49;69.52;;
47962;Laerm;33723;50.928;6.960;2022-12-10T20:58:58;63.42;48.20;70.09;;
47962;Laerm;33723;50.928;6.960;2022-12-10T21:01:23;62.08;47.59;69.97;;
47962;Laerm;33723;50.928;6.960;2022-12-10T21:03:48;64.63;52.87;82.98;;
47962;Laerm;33723;50.928;6.960;2022-12-10T21:06:18;62.29;46.10;72.57;;
47962;Laerm;33723;50.928;6.960;2022-12-10T21:08:49;63.62;47.96;75.79;;
47962;Laerm;33723;50.928;6.960;2022-12-10T21:11:15;63.18;48.85;71.92;;
47962;Laerm;33723;50.928;6.960;2022-12-10T21:13:40;63.07;46.18;72.57;;
47962;Laerm;33723;50.928;6.960;2022-12-10T21:16:05;63.62;45.20;88.60;;
47962;Laerm;33723;50.928;6.960;2022-12-10T21:18:31;63.70;48.57;73.09;;
47962;Laerm;33723;50.928;6.960;2022-12-10T21:20:56;62.45;47.61;70.19;;
47962;Laerm;33723;50.928;6.960;2022-12-10T21:23:23;64.25;45.01;73.69;;
47962;Laerm;33723;50.928;6.960;2022-12-10T21:25:49;63.15;52.24;76.88;;
47962;Laerm;33723;50.928;6.960;2022-12-10T21:28:14;64.47;46.10;74.17;;
47962;Laerm;33723;50.928;6.960;2022-12-10T21:30:40;62.85;48.26;72.59;;
47962;Laerm;33723;50.928;6.960;2022-12-10T21:33:08;61.78;46.02;71.79;;
47962;Laerm;33723;50.928;6.960;2022-12-10T21:35:34;63.98;44.87;71.92;;
47962;Laerm;33723;50.928;6.960;2022-12-10T21:37:59;64.38;47.55;74.18;;
47962;Laerm;33723;50.928;6.960;2022-12-10T21:40:24;63.58;52.28;73.40;;
47962;Laerm;33723;50.928;6.960;2022-12-10T21:42:49;63.35;51.52;71.34;;
47962;Laerm;33723;50.928;6.960;2022-12-10T21:45:33;61.63;49.25;69.43;;
47962;Laerm;33723;50.928;6.960;2022-12-10T21:47:59;63.33;51.38;73.52;;
47962;Laerm;33723;50.928;6.960;2022-12-10T21:50:25;63.31;48.20;73.52;;
47962;Laerm;33723;50.928;6.960;2022-12-10T21:52:51;63.60;47.74;73.94;;
47962;Laerm;33723;50.928;6.960;2022-12-10T21:55:19;61.90;46.28;70.86;;
47962;Laerm;33723;50.928;6.960;2022-12-10T21:57:45;62.36;45.97;72.78;;
47962;Laerm;33723;50.928;6.960;2022-12-10T22:00:11;62.36;45.33;71.75;;
47962;Laerm;33723;50.928;6.960;2022-12-10T22:02:37;64.33;48.98;75.60;;
47962;Laerm;33723;50.928;6.960;2022-12-10T22:05:02;60.57;46.71;69.87;;